VTI412 VABB-VOBL
Flight info
| Callsign | VTI412 |
|---|---|
| Flight time | 1h 7m |
| Altitude | 39000 |
| Route | VEVAK2A EPKOS Q9 RIKBU RIKBU7E |
| Aircraft | B789/H-SDE1E2E3FGHIJ2J3J4J5M1RWXY/LB1D1 |
Departure
| Time | 2026-04-29 16:00 |
|---|---|
| Airport | Chhatrapati Shivaji Maharaj International Airport (VABB) |
Arrival
| Time | 2026-04-29 17:08 |
|---|---|
| Airport | Kempegowda International Airport Bengaluru (VOBL) |
| Time | Latitude | Longitude | Altitude | Speed | Heading |
|---|---|---|---|---|---|
| 2026-04-29 15:30 | 19.09412 | 72.87292 | 49 ft | 0 kts | 299° |
| 2026-04-29 15:45 | 19.09409 | 72.87298 | 47 ft | 3 kts | 299° |
| 2026-04-29 15:46 | 19.09399 | 72.87316 | 47 ft | 3 kts | 300° |
| 2026-04-29 15:46 | 19.09388 | 72.87335 | 47 ft | 3 kts | 301° |
| 2026-04-29 15:46 | 19.09378 | 72.87353 | 47 ft | 3 kts | 299° |
| 2026-04-29 15:46 | 19.09372 | 72.87366 | 47 ft | 2 kts | 278° |
| 2026-04-29 15:47 | 19.09374 | 72.87377 | 47 ft | 1 kts | 236° |
| 2026-04-29 15:47 | 19.09379 | 72.87384 | 47 ft | 1 kts | 225° |
| 2026-04-29 15:47 | 19.09380 | 72.87385 | 47 ft | 0 kts | 225° |
| 2026-04-29 15:48 | 19.09378 | 72.87382 | 47 ft | 2 kts | 225° |
| 2026-04-29 15:48 | 19.09347 | 72.87359 | 47 ft | 9 kts | 206° |
| 2026-04-29 15:49 | 19.09302 | 72.87359 | 49 ft | 8 kts | 171° |
| 2026-04-29 15:49 | 19.09246 | 72.87340 | 51 ft | 7 kts | 237° |
| 2026-04-29 15:49 | 19.09226 | 72.87279 | 48 ft | 11 kts | 231° |
| 2026-04-29 15:49 | 19.09159 | 72.87263 | 50 ft | 0 kts | 178° |
| 2026-04-29 15:53 | 19.09157 | 72.87263 | 55 ft | 2 kts | 178° |
| 2026-04-29 15:54 | 19.09125 | 72.87264 | 48 ft | 7 kts | 178° |
| 2026-04-29 15:54 | 19.09064 | 72.87279 | 51 ft | 9 kts | 133° |
| 2026-04-29 15:54 | 19.09052 | 72.87350 | 50 ft | 13 kts | 91° |
| 2026-04-29 15:54 | 19.09051 | 72.87456 | 50 ft | 15 kts | 88° |
| 2026-04-29 15:55 | 19.09056 | 72.87577 | 48 ft | 17 kts | 88° |
| 2026-04-29 15:55 | 19.09060 | 72.87712 | 54 ft | 19 kts | 88° |
| 2026-04-29 15:55 | 19.09062 | 72.87859 | 54 ft | 21 kts | 91° |
| 2026-04-29 15:55 | 19.09057 | 72.88013 | 49 ft | 13 kts | 94° |
| 2026-04-29 15:56 | 19.09021 | 72.88053 | 50 ft | 3 kts | 179° |
| 2026-04-29 15:56 | 19.09012 | 72.88052 | 50 ft | 0 kts | 179° |
| 2026-04-29 15:58 | 19.09010 | 72.88052 | 51 ft | 2 kts | 179° |
| 2026-04-29 15:58 | 19.08981 | 72.88053 | 46 ft | 6 kts | 179° |
| 2026-04-29 15:58 | 19.08920 | 72.88044 | 52 ft | 12 kts | 200° |
| 2026-04-29 15:59 | 19.08887 | 72.87987 | 48 ft | 8 kts | 271° |
| 2026-04-29 15:59 | 19.08886 | 72.87924 | 53 ft | 9 kts | 268° |
| 2026-04-29 15:59 | 19.08884 | 72.87844 | 48 ft | 20 kts | 268° |
| 2026-04-29 15:59 | 19.08878 | 72.87420 | 55 ft | 98 kts | 270° |
| 2026-04-29 16:00 | 19.08865 | 72.86431 | 54 ft | 169 kts | 269° |
| 2026-04-29 16:00 | 19.08847 | 72.85043 | 492 ft | 195 kts | 269° |
| 2026-04-29 16:00 | 19.08849 | 72.83551 | 1301 ft | 214 kts | 270° |
| 2026-04-29 16:00 | 19.08834 | 72.81911 | 2035 ft | 233 kts | 269° |
| 2026-04-29 16:01 | 19.08798 | 72.80132 | 2784 ft | 251 kts | 269° |
| 2026-04-29 16:01 | 19.08674 | 72.78233 | 3524 ft | 269 kts | 256° |
| 2026-04-29 16:01 | 19.07745 | 72.76459 | 4301 ft | 287 kts | 230° |
| 2026-04-29 16:01 | 19.06041 | 72.75255 | 5087 ft | 306 kts | 201° |
| 2026-04-29 16:02 | 19.03893 | 72.74945 | 5835 ft | 320 kts | 185° |
| 2026-04-29 16:02 | 19.01665 | 72.74895 | 6338 ft | 324 kts | 183° |
| 2026-04-29 16:02 | 18.99450 | 72.74884 | 7210 ft | 317 kts | 184° |
| 2026-04-29 16:02 | 18.97230 | 72.74826 | 8170 ft | 321 kts | 185° |
| 2026-04-29 16:03 | 18.94978 | 72.74747 | 9166 ft | 325 kts | 184° |
| 2026-04-29 16:03 | 18.92708 | 72.74683 | 10125 ft | 328 kts | 184° |
| 2026-04-29 16:03 | 18.90417 | 72.74628 | 11069 ft | 330 kts | 183° |
| 2026-04-29 16:03 | 18.88119 | 72.74568 | 12033 ft | 331 kts | 183° |
| 2026-04-29 16:04 | 18.85809 | 72.74504 | 13007 ft | 332 kts | 183° |
| 2026-04-29 16:04 | 18.83492 | 72.74441 | 13960 ft | 334 kts | 183° |
| 2026-04-29 16:04 | 18.81168 | 72.74378 | 14844 ft | 336 kts | 182° |
| 2026-04-29 16:04 | 18.78780 | 72.74319 | 15398 ft | 349 kts | 181° |
| 2026-04-29 16:05 | 18.76370 | 72.74740 | 16033 ft | 358 kts | 161° |
| 2026-04-29 16:05 | 18.73979 | 72.75587 | 16643 ft | 367 kts | 162° |
| 2026-04-29 16:05 | 18.71523 | 72.76442 | 17270 ft | 376 kts | 162° |
| 2026-04-29 16:05 | 18.69013 | 72.77312 | 17920 ft | 383 kts | 162° |
| 2026-04-29 16:06 | 18.66456 | 72.78200 | 18504 ft | 390 kts | 162° |
| 2026-04-29 16:06 | 18.63886 | 72.79094 | 19068 ft | 397 kts | 162° |
| 2026-04-29 16:06 | 18.61248 | 72.80011 | 19650 ft | 402 kts | 162° |
| 2026-04-29 16:06 | 18.58571 | 72.80940 | 20249 ft | 408 kts | 162° |
| 2026-04-29 16:07 | 18.55861 | 72.81880 | 20856 ft | 412 kts | 162° |
| 2026-04-29 16:07 | 18.53129 | 72.82829 | 21471 ft | 415 kts | 162° |
| 2026-04-29 16:07 | 18.50372 | 72.83785 | 22095 ft | 418 kts | 161° |
| 2026-04-29 16:07 | 18.47602 | 72.84745 | 22731 ft | 420 kts | 161° |
| 2026-04-29 16:08 | 18.44817 | 72.85711 | 23384 ft | 422 kts | 161° |
| 2026-04-29 16:08 | 18.42030 | 72.86677 | 23928 ft | 423 kts | 162° |
| 2026-04-29 16:08 | 18.39225 | 72.87649 | 24475 ft | 424 kts | 162° |
| 2026-04-29 16:08 | 18.36424 | 72.88619 | 25024 ft | 424 kts | 162° |
| 2026-04-29 16:09 | 18.33616 | 72.89591 | 25590 ft | 425 kts | 162° |
| 2026-04-29 16:09 | 18.30806 | 72.90563 | 26161 ft | 425 kts | 162° |
| 2026-04-29 16:09 | 18.28000 | 72.91534 | 26740 ft | 424 kts | 162° |
| 2026-04-29 16:09 | 18.25234 | 72.92491 | 27327 ft | 424 kts | 162° |
| 2026-04-29 16:10 | 18.22433 | 72.93459 | 27935 ft | 422 kts | 163° |
| 2026-04-29 16:10 | 18.19648 | 72.94421 | 28539 ft | 421 kts | 163° |
| 2026-04-29 16:10 | 18.16870 | 72.95381 | 29178 ft | 419 kts | 163° |
| 2026-04-29 16:10 | 18.14110 | 72.96334 | 29805 ft | 416 kts | 163° |
| 2026-04-29 16:11 | 18.11370 | 72.97280 | 30353 ft | 413 kts | 163° |
| 2026-04-29 16:11 | 18.08741 | 72.98448 | 30908 ft | 408 kts | 147° |
| 2026-04-29 16:11 | 18.06515 | 73.00258 | 31507 ft | 401 kts | 136° |
| 2026-04-29 16:11 | 18.04446 | 73.02244 | 31775 ft | 406 kts | 137° |
| 2026-04-29 16:12 | 18.02343 | 73.04260 | 32000 ft | 412 kts | 137° |
| 2026-04-29 16:12 | 18.00934 | 73.05607 | 32152 ft | 415 kts | 137° |
| 2026-04-29 16:12 | 17.98054 | 73.08353 | 32479 ft | 421 kts | 136° |
| 2026-04-29 16:12 | 17.95872 | 73.10437 | 32734 ft | 426 kts | 136° |
| 2026-04-29 16:13 | 17.93673 | 73.12537 | 32986 ft | 430 kts | 136° |
| 2026-04-29 16:13 | 17.91450 | 73.14658 | 33249 ft | 433 kts | 136° |
| 2026-04-29 16:13 | 17.89211 | 73.16793 | 33517 ft | 437 kts | 136° |
| 2026-04-29 16:13 | 17.86954 | 73.18945 | 33780 ft | 440 kts | 136° |
| 2026-04-29 16:14 | 17.84682 | 73.21110 | 34017 ft | 443 kts | 136° |
| 2026-04-29 16:14 | 17.82395 | 73.23289 | 34261 ft | 445 kts | 136° |
| 2026-04-29 16:14 | 17.80093 | 73.25481 | 34491 ft | 448 kts | 136° |
| 2026-04-29 16:14 | 17.77780 | 73.27683 | 34734 ft | 450 kts | 136° |
| 2026-04-29 16:15 | 17.75451 | 73.29900 | 34944 ft | 452 kts | 136° |
| 2026-04-29 16:15 | 17.73142 | 73.32096 | 35183 ft | 454 kts | 136° |
| 2026-04-29 16:15 | 17.70797 | 73.34327 | 35415 ft | 456 kts | 136° |
| 2026-04-29 16:15 | 17.68442 | 73.36564 | 35656 ft | 457 kts | 136° |
| 2026-04-29 16:16 | 17.66082 | 73.38807 | 35916 ft | 459 kts | 136° |
| 2026-04-29 16:16 | 17.63718 | 73.41053 | 36159 ft | 460 kts | 136° |
| 2026-04-29 16:16 | 17.61346 | 73.43306 | 36396 ft | 460 kts | 136° |
| 2026-04-29 16:16 | 17.58970 | 73.45561 | 36638 ft | 461 kts | 136° |
| 2026-04-29 16:17 | 17.56591 | 73.47818 | 36877 ft | 461 kts | 136° |
| 2026-04-29 16:17 | 17.54213 | 73.50073 | 37123 ft | 462 kts | 136° |
| 2026-04-29 16:17 | 17.51829 | 73.52334 | 37382 ft | 462 kts | 136° |
| 2026-04-29 16:17 | 17.49449 | 73.54589 | 37631 ft | 462 kts | 136° |
| 2026-04-29 16:18 | 17.47064 | 73.56849 | 37878 ft | 462 kts | 136° |
| 2026-04-29 16:18 | 17.44687 | 73.59101 | 38125 ft | 461 kts | 136° |
| 2026-04-29 16:18 | 17.42305 | 73.61356 | 38380 ft | 461 kts | 136° |
| 2026-04-29 16:18 | 17.39928 | 73.63605 | 38628 ft | 460 kts | 136° |
| 2026-04-29 16:19 | 17.37554 | 73.65851 | 38851 ft | 459 kts | 136° |
| 2026-04-29 16:19 | 17.32781 | 73.70365 | 38921 ft | 467 kts | 136° |
| 2026-04-29 16:20 | 17.27915 | 73.74962 | 38935 ft | 476 kts | 136° |
| 2026-04-29 16:20 | 17.22944 | 73.79656 | 38948 ft | 485 kts | 136° |
| 2026-04-29 16:21 | 17.17889 | 73.84424 | 38949 ft | 494 kts | 136° |
| 2026-04-29 16:21 | 17.12738 | 73.89281 | 38950 ft | 502 kts | 136° |
| 2026-04-29 16:22 | 17.07508 | 73.94206 | 38948 ft | 510 kts | 136° |
| 2026-04-29 16:22 | 17.02199 | 73.99204 | 38949 ft | 517 kts | 136° |
| 2026-04-29 16:23 | 16.96821 | 74.04262 | 38947 ft | 523 kts | 136° |
| 2026-04-29 16:23 | 16.91381 | 74.09374 | 38941 ft | 529 kts | 136° |
| 2026-04-29 16:24 | 16.86339 | 74.14922 | 38946 ft | 529 kts | 127° |
| 2026-04-29 16:24 | 16.81784 | 74.20997 | 38952 ft | 534 kts | 126° |
| 2026-04-29 16:25 | 16.77150 | 74.27089 | 38947 ft | 536 kts | 127° |
| 2026-04-29 16:25 | 16.72587 | 74.33121 | 38951 ft | 531 kts | 126° |
| 2026-04-29 16:26 | 16.68006 | 74.39158 | 38947 ft | 530 kts | 127° |
| 2026-04-29 16:26 | 16.63427 | 74.45188 | 38948 ft | 530 kts | 127° |
| 2026-04-29 16:27 | 16.58844 | 74.51222 | 38946 ft | 530 kts | 127° |
| 2026-04-29 16:27 | 16.54259 | 74.57248 | 38945 ft | 530 kts | 127° |
| 2026-04-29 16:28 | 16.49675 | 74.63273 | 38942 ft | 530 kts | 127° |
| 2026-04-29 16:28 | 16.45091 | 74.69287 | 38937 ft | 529 kts | 127° |
| 2026-04-29 16:29 | 16.40530 | 74.75268 | 38936 ft | 527 kts | 127° |
| 2026-04-29 16:29 | 16.35968 | 74.81245 | 38930 ft | 528 kts | 127° |
| 2026-04-29 16:30 | 16.31411 | 74.87211 | 38940 ft | 527 kts | 127° |
| 2026-04-29 16:30 | 16.26845 | 74.93183 | 38940 ft | 527 kts | 127° |
| 2026-04-29 16:31 | 16.22277 | 74.99153 | 38950 ft | 528 kts | 127° |
| 2026-04-29 16:31 | 16.17697 | 75.05133 | 38951 ft | 528 kts | 127° |
| 2026-04-29 16:32 | 16.13117 | 75.11110 | 38943 ft | 528 kts | 127° |
| 2026-04-29 16:32 | 16.08533 | 75.17085 | 38952 ft | 528 kts | 127° |
| 2026-04-29 16:33 | 16.01650 | 75.26049 | 38948 ft | 530 kts | 127° |
| 2026-04-29 16:33 | 15.97058 | 75.32022 | 38954 ft | 529 kts | 127° |
| 2026-04-29 16:34 | 15.92490 | 75.37961 | 38947 ft | 530 kts | 127° |
| 2026-04-29 16:34 | 15.87895 | 75.43927 | 38946 ft | 528 kts | 127° |
| 2026-04-29 16:35 | 15.83307 | 75.49884 | 38943 ft | 528 kts | 127° |
| 2026-04-29 16:35 | 15.78716 | 75.55837 | 38943 ft | 527 kts | 127° |
| 2026-04-29 16:36 | 15.74126 | 75.61783 | 38943 ft | 528 kts | 127° |
| 2026-04-29 16:36 | 15.69535 | 75.67727 | 38953 ft | 528 kts | 127° |
| 2026-04-29 16:37 | 15.64936 | 75.73675 | 38954 ft | 529 kts | 127° |
| 2026-04-29 16:37 | 15.61112 | 75.78620 | 38959 ft | 529 kts | 127° |
| 2026-04-29 16:38 | 15.55721 | 75.85583 | 38968 ft | 531 kts | 128° |
| 2026-04-29 16:38 | 15.51086 | 75.91565 | 38967 ft | 533 kts | 128° |
| 2026-04-29 16:39 | 15.46478 | 75.97507 | 38975 ft | 531 kts | 128° |
| 2026-04-29 16:39 | 15.41840 | 76.03483 | 38976 ft | 533 kts | 128° |
| 2026-04-29 16:40 | 15.37195 | 76.09463 | 38975 ft | 532 kts | 128° |
| 2026-04-29 16:40 | 15.32555 | 76.15432 | 38976 ft | 533 kts | 128° |
| 2026-04-29 16:41 | 15.27890 | 76.21428 | 38981 ft | 535 kts | 128° |
| 2026-04-29 16:41 | 15.24003 | 76.26421 | 38982 ft | 535 kts | 128° |
| 2026-04-29 16:42 | 15.19334 | 76.32414 | 38987 ft | 533 kts | 128° |
| 2026-04-29 16:42 | 15.13981 | 76.37645 | 39026 ft | 531 kts | 148° |
| 2026-04-29 16:43 | 15.07738 | 76.41753 | 38997 ft | 533 kts | 148° |
| 2026-04-29 16:43 | 15.01455 | 76.45855 | 38996 ft | 533 kts | 148° |
| 2026-04-29 16:44 | 14.95192 | 76.49968 | 39000 ft | 533 kts | 148° |
| 2026-04-29 16:44 | 14.88902 | 76.54075 | 38999 ft | 535 kts | 148° |
| 2026-04-29 16:45 | 14.82598 | 76.58203 | 39002 ft | 537 kts | 148° |
| 2026-04-29 16:45 | 14.76282 | 76.62326 | 39003 ft | 536 kts | 148° |
| 2026-04-29 16:46 | 14.69981 | 76.66443 | 39000 ft | 536 kts | 148° |
| 2026-04-29 16:46 | 14.63682 | 76.70551 | 38999 ft | 535 kts | 148° |
| 2026-04-29 16:47 | 14.57387 | 76.74657 | 38998 ft | 535 kts | 148° |
| 2026-04-29 16:47 | 14.51113 | 76.78745 | 38989 ft | 533 kts | 148° |
| 2026-04-29 16:48 | 14.44873 | 76.82807 | 38986 ft | 535 kts | 148° |
| 2026-04-29 16:48 | 14.38569 | 76.86911 | 39009 ft | 536 kts | 148° |
| 2026-04-29 16:49 | 14.32258 | 76.91014 | 39004 ft | 536 kts | 148° |
| 2026-04-29 16:49 | 14.25948 | 76.95115 | 39014 ft | 536 kts | 148° |
| 2026-04-29 16:50 | 14.19618 | 76.99227 | 38166 ft | 531 kts | 149° |
| 2026-04-29 16:50 | 14.16567 | 77.01219 | 37346 ft | 508 kts | 149° |
| 2026-04-29 16:50 | 14.13642 | 77.03130 | 36563 ft | 489 kts | 149° |
| 2026-04-29 16:51 | 14.10818 | 77.04966 | 35787 ft | 472 kts | 149° |
| 2026-04-29 16:51 | 14.08084 | 77.06743 | 35032 ft | 456 kts | 149° |
| 2026-04-29 16:51 | 14.05440 | 77.08464 | 34316 ft | 443 kts | 149° |
| 2026-04-29 16:51 | 14.02855 | 77.10147 | 33581 ft | 442 kts | 150° |
| 2026-04-29 16:52 | 14.00218 | 77.11858 | 32620 ft | 453 kts | 150° |
| 2026-04-29 16:52 | 13.97529 | 77.13605 | 31689 ft | 462 kts | 149° |
| 2026-04-29 16:52 | 13.94784 | 77.15392 | 30806 ft | 470 kts | 149° |
| 2026-04-29 16:52 | 13.91996 | 77.17205 | 29913 ft | 478 kts | 149° |
| 2026-04-29 16:53 | 13.89170 | 77.19040 | 28921 ft | 483 kts | 149° |
| 2026-04-29 16:53 | 13.86314 | 77.20894 | 27957 ft | 483 kts | 149° |
| 2026-04-29 16:53 | 13.83538 | 77.22701 | 26982 ft | 462 kts | 149° |
| 2026-04-29 16:53 | 13.80879 | 77.24430 | 26032 ft | 443 kts | 149° |
| 2026-04-29 16:54 | 13.78321 | 77.26086 | 25101 ft | 427 kts | 149° |
| 2026-04-29 16:54 | 13.75851 | 77.27687 | 24196 ft | 413 kts | 149° |
| 2026-04-29 16:54 | 13.73460 | 77.29239 | 23265 ft | 400 kts | 149° |
| 2026-04-29 16:54 | 13.71136 | 77.30746 | 22222 ft | 389 kts | 149° |
| 2026-04-29 16:55 | 13.68874 | 77.32211 | 21232 ft | 379 kts | 149° |
| 2026-04-29 16:55 | 13.66671 | 77.33638 | 20266 ft | 370 kts | 148° |
| 2026-04-29 16:55 | 13.64518 | 77.35033 | 19329 ft | 361 kts | 148° |
| 2026-04-29 16:55 | 13.62411 | 77.36399 | 18438 ft | 354 kts | 147° |
| 2026-04-29 16:56 | 13.60352 | 77.37733 | 17439 ft | 346 kts | 147° |
| 2026-04-29 16:56 | 13.58345 | 77.38982 | 16461 ft | 337 kts | 154° |
| 2026-04-29 16:56 | 13.57146 | 77.39471 | 15944 ft | 331 kts | 160° |
| 2026-04-29 16:57 | 13.57014 | 77.39518 | 15893 ft | 330 kts | 160° |
| 2026-04-29 16:57 | 13.54875 | 77.40328 | 14942 ft | 324 kts | 157° |
| 2026-04-29 16:57 | 13.52800 | 77.41184 | 14029 ft | 318 kts | 157° |
| 2026-04-29 16:58 | 13.50762 | 77.42005 | 13058 ft | 312 kts | 158° |
| 2026-04-29 16:58 | 13.48757 | 77.42786 | 12136 ft | 304 kts | 158° |
| 2026-04-29 16:58 | 13.46807 | 77.43547 | 11253 ft | 297 kts | 158° |
| 2026-04-29 16:58 | 13.44899 | 77.44302 | 10398 ft | 291 kts | 158° |
| 2026-04-29 16:59 | 13.43027 | 77.45043 | 9526 ft | 285 kts | 158° |
| 2026-04-29 16:59 | 13.41145 | 77.45556 | 8611 ft | 278 kts | 180° |
| 2026-04-29 16:59 | 13.39279 | 77.45501 | 8136 ft | 256 kts | 176° |
| 2026-04-29 16:59 | 13.37581 | 77.45503 | 8167 ft | 245 kts | 179° |
| 2026-04-29 17:00 | 13.35822 | 77.45584 | 7687 ft | 255 kts | 182° |
| 2026-04-29 17:00 | 13.34184 | 77.44960 | 7210 ft | 253 kts | 218° |
| 2026-04-29 17:00 | 13.32962 | 77.43752 | 6829 ft | 239 kts | 226° |
| 2026-04-29 17:00 | 13.31872 | 77.42457 | 6436 ft | 242 kts | 229° |
| 2026-04-29 17:01 | 13.30804 | 77.41147 | 6181 ft | 234 kts | 229° |
| 2026-04-29 17:01 | 13.29643 | 77.40014 | 6043 ft | 230 kts | 206° |
| 2026-04-29 17:01 | 13.28117 | 77.39815 | 6007 ft | 218 kts | 165° |
| 2026-04-29 17:01 | 13.26945 | 77.40652 | 6004 ft | 203 kts | 128° |
| 2026-04-29 17:02 | 13.26237 | 77.41896 | 6032 ft | 202 kts | 119° |
| 2026-04-29 17:02 | 13.25585 | 77.43160 | 6032 ft | 200 kts | 119° |
| 2026-04-29 17:02 | 13.24942 | 77.44407 | 6097 ft | 201 kts | 119° |
| 2026-04-29 17:02 | 13.24285 | 77.45686 | 6537 ft | 203 kts | 118° |
| 2026-04-29 17:03 | 13.23615 | 77.47000 | 6954 ft | 215 kts | 118° |
| 2026-04-29 17:03 | 13.22952 | 77.48318 | 7405 ft | 204 kts | 118° |
| 2026-04-29 17:03 | 13.22283 | 77.49672 | 7618 ft | 215 kts | 117° |
| 2026-04-29 17:03 | 13.21628 | 77.51027 | 8018 ft | 209 kts | 116° |
| 2026-04-29 17:04 | 13.21029 | 77.52405 | 8218 ft | 215 kts | 107° |
| 2026-04-29 17:04 | 13.20583 | 77.53864 | 7869 ft | 212 kts | 96° |
| 2026-04-29 17:04 | 13.20491 | 77.55320 | 7299 ft | 200 kts | 88° |
| 2026-04-29 17:04 | 13.20630 | 77.56728 | 6538 ft | 196 kts | 85° |
| 2026-04-29 17:05 | 13.20749 | 77.58099 | 5621 ft | 190 kts | 87° |
| 2026-04-29 17:05 | 13.20814 | 77.59432 | 4812 ft | 183 kts | 90° |
| 2026-04-29 17:05 | 13.20840 | 77.60693 | 4155 ft | 171 kts | 91° |
| 2026-04-29 17:05 | 13.20858 | 77.61872 | 3797 ft | 158 kts | 92° |
| 2026-04-29 17:06 | 13.20827 | 77.63004 | 3599 ft | 161 kts | 95° |
| 2026-04-29 17:06 | 13.20738 | 77.64157 | 3463 ft | 164 kts | 90° |
| 2026-04-29 17:06 | 13.20711 | 77.65321 | 3386 ft | 165 kts | 88° |
| 2026-04-29 17:06 | 13.20760 | 77.66505 | 3327 ft | 167 kts | 90° |
| 2026-04-29 17:07 | 13.20751 | 77.67700 | 3188 ft | 168 kts | 92° |
| 2026-04-29 17:07 | 13.20703 | 77.68892 | 3023 ft | 158 kts | 88° |
| 2026-04-29 17:07 | 13.20717 | 77.69812 | 3016 ft | 102 kts | 92° |
| 2026-04-29 17:07 | 13.20705 | 77.70428 | 3016 ft | 79 kts | 91° |
| 2026-04-29 17:08 | 13.20687 | 77.70878 | 3016 ft | 47 kts | 106° |
| 2026-04-29 17:08 | 13.20591 | 77.71080 | 3016 ft | 13 kts | 121° |
| 2026-04-29 17:08 | 13.20585 | 77.71091 | 3016 ft | 0 kts | 121° |
| 2026-04-29 17:09 | 13.20564 | 77.71126 | 3018 ft | 9 kts | 121° |
| 2026-04-29 17:10 | 13.20535 | 77.71179 | 3018 ft | 8 kts | 111° |
| 2026-04-29 17:10 | 13.20527 | 77.71236 | 3016 ft | 9 kts | 93° |
| 2026-04-29 17:10 | 13.20526 | 77.71304 | 3016 ft | 10 kts | 89° |
| 2026-04-29 17:10 | 13.20526 | 77.71366 | 3016 ft | 13 kts | 91° |
| 2026-04-29 17:11 | 13.20525 | 77.71442 | 3016 ft | 13 kts | 91° |
| 2026-04-29 17:11 | 13.20523 | 77.71544 | 3017 ft | 16 kts | 91° |
| 2026-04-29 17:11 | 13.20522 | 77.71670 | 3017 ft | 19 kts | 91° |
| 2026-04-29 17:11 | 13.20519 | 77.71819 | 3017 ft | 22 kts | 91° |
| 2026-04-29 17:12 | 13.20520 | 77.71984 | 3017 ft | 15 kts | 90° |
| 2026-04-29 17:12 | 13.20515 | 77.72080 | 3017 ft | 13 kts | 107° |
| 2026-04-29 17:12 | 13.20448 | 77.72114 | 3017 ft | 12 kts | 179° |
| 2026-04-29 17:12 | 13.20387 | 77.72115 | 3018 ft | 14 kts | 180° |
| 2026-04-29 17:13 | 13.20241 | 77.72113 | 3017 ft | 17 kts | 181° |
| 2026-04-29 17:13 | 13.20145 | 77.72112 | 3017 ft | 10 kts | 181° |
| 2026-04-29 17:13 | 13.20065 | 77.72111 | 3017 ft | 14 kts | 180° |
| 2026-04-29 17:13 | 13.20032 | 77.72090 | 3017 ft | 6 kts | 244° |
| 2026-04-29 17:14 | 13.20026 | 77.72049 | 3017 ft | 0 kts | 271° |
| 2026-04-29 17:14 | 13.20026 | 77.72044 | 3017 ft | 3 kts | 269° |
| 2026-04-29 17:15 | 13.20026 | 77.72029 | 3017 ft | 3 kts | 270° |
| 2026-04-29 17:15 | 13.20026 | 77.72027 | 3017 ft | 0 kts | 270° |